Time;durP1;ratioP1;P1;durP2;ratioP2;P2;SDS_P1;SDS_P2;PMS_P1;PMS_P2;Temp;Humidity;BMP_temperature;BMP_pressure;BME280_temperature;BME280_humidity;BME280_pressure;Samples;Min_cycle;Max_cycle;Signal;HPM_P1;HPM_P2
2023/05/17 00:00:00;;;;;;;4.15;2.00;;;21.90;39.40;;;;;;5061151;28;20104;-61
2023/05/17 00:02:25;;;;;;;4.70;2.03;;;21.90;39.30;;;;;;5054393;28;21374;-60
2023/05/17 00:04:52;;;;;;;5.20;1.95;;;21.90;39.30;;;;;;5060132;28;20051;-60
2023/05/17 00:07:18;;;;;;;4.93;1.92;;;21.90;39.30;;;;;;5059328;28;20032;-60
2023/05/17 00:09:44;;;;;;;4.35;2.10;;;22.00;39.40;;;;;;5061783;28;20323;-62
2023/05/17 00:12:09;;;;;;;4.10;1.83;;;21.90;39.30;;;;;;5056968;28;20024;-59
2023/05/17 00:14:35;;;;;;;4.35;1.75;;;21.90;39.30;;;;;;5059681;28;20066;-59
2023/05/17 00:17:01;;;;;;;3.88;1.80;;;21.90;39.30;;;;;;5056112;28;20041;-63
2023/05/17 00:19:27;;;;;;;4.32;1.95;;;21.90;39.30;;;;;;5058681;28;20022;-60
2023/05/17 00:21:52;;;;;;;4.35;1.80;;;21.90;39.40;;;;;;5058800;28;20413;-62
2023/05/17 00:24:18;;;;;;;4.63;2.08;;;21.90;39.40;;;;;;5037887;28;20074;-61
2023/05/17 00:26:44;;;;;;;3.40;1.80;;;21.90;39.40;;;;;;5064224;28;20352;-60
2023/05/17 00:29:10;;;;;;;3.70;1.80;;;21.90;39.40;;;;;;5064017;28;20024;-61
2023/05/17 00:31:36;;;;;;;5.78;1.90;;;21.90;39.40;;;;;;5039133;28;20029;-61
2023/05/17 00:34:02;;;;;;;4.25;1.80;;;21.90;39.40;;;;;;5059799;28;20036;-60
2023/05/17 00:36:28;;;;;;;4.82;2.20;;;21.90;39.40;;;;;;5057360;28;20352;-58
2023/05/17 00:38:53;;;;;;;3.78;2.22;;;21.90;39.40;;;;;;5038594;28;20032;-60
2023/05/17 00:41:19;;;;;;;3.22;1.73;;;21.90;39.40;;;;;;5058808;28;20036;-60
2023/05/17 00:43:45;;;;;;;5.03;2.00;;;21.90;39.40;;;;;;5056226;28;20080;-60
2023/05/17 00:46:11;;;;;;;4.68;1.83;;;21.90;39.50;;;;;;5038453;28;20476;-60
2023/05/17 00:48:37;;;;;;;3.45;1.88;;;21.90;39.40;;;;;;5050504;28;20161;-61
2023/05/17 00:51:04;;;;;;;4.00;1.80;;;21.90;39.50;;;;;;5057391;28;20070;-61
2023/05/17 00:53:30;;;;;;;4.70;1.95;;;21.90;39.40;;;;;;5056026;28;20050;-61
2023/05/17 00:55:56;;;;;;;4.15;1.85;;;21.90;39.40;;;;;;5057509;28;20051;-58
2023/05/17 00:58:23;;;;;;;3.92;1.90;;;21.90;39.50;;;;;;5041403;28;20041;-60
2023/05/17 01:00:50;;;;;;;4.32;1.85;;;21.90;39.50;;;;;;5039728;28;20035;-59
2023/05/17 01:03:15;;;;;;;5.40;2.00;;;21.90;40.10;;;;;;5052663;28;20124;-59
2023/05/17 01:05:41;;;;;;;5.07;1.88;;;21.90;39.50;;;;;;5058402;28;20119;-62
2023/05/17 01:08:07;;;;;;;5.05;2.05;;;21.90;39.50;;;;;;5058012;28;20448;-59
2023/05/17 01:10:47;;;;;;;3.88;1.73;;;21.90;39.50;;;;;;5046151;28;20033;-60
2023/05/17 01:13:31;;;;;;;5.45;2.13;;;21.90;39.50;;;;;;5038703;28;20128;-60
2023/05/17 01:16:26;;;;;;;5.35;2.03;;;21.90;40.10;;;;;;5041977;28;20024;-61
2023/05/17 01:19:04;;;;;;;4.30;2.30;;;21.90;39.40;;;;;;5055656;28;20040;-60
2023/05/17 01:21:49;;;;;;;4.65;2.08;;;21.90;39.50;;;;;;5041092;28;20049;-61
2023/05/17 01:24:49;;;;;;;5.55;1.73;;;21.90;39.50;;;;;;5060194;28;20383;-60
2023/05/17 01:27:17;;;;;;;5.00;2.25;;;21.90;39.60;;;;;;5041622;28;20463;-57
2023/05/17 01:29:44;;;;;;;4.72;2.15;;;21.90;39.50;;;;;;5058870;28;20112;-59
2023/05/17 01:32:11;;;;;;;5.03;2.20;;;21.90;39.60;;;;;;5034865;28;20047;-60
2023/05/17 01:34:37;;;;;;;4.93;2.05;;;21.90;39.60;;;;;;5055992;28;20049;-61
2023/05/17 01:37:03;;;;;;;5.07;2.60;;;21.90;39.60;;;;;;5042152;28;20068;-60
2023/05/17 01:39:29;;;;;;;4.13;1.58;;;21.90;39.60;;;;;;5056838;28;20116;-61
2023/05/17 01:42:12;;;;;;;4.80;2.22;;;21.90;39.60;;;;;;5057860;28;20028;-61
2023/05/17 01:44:56;;;;;;;4.22;1.85;;;21.90;39.60;;;;;;5039548;28;20456;-59
2023/05/17 01:47:59;;;;;;;5.28;2.20;;;21.90;39.60;;;;;;5055112;28;20045;-62
2023/05/17 01:50:29;;;;;;;5.53;2.55;;;21.90;39.60;;;;;;5058157;28;20098;-62
2023/05/17 01:53:21;;;;;;;3.65;2.03;;;21.90;39.60;;;;;;5047703;28;20021;-61
2023/05/17 01:55:56;;;;;;;3.45;1.65;;;21.90;39.60;;;;;;5052382;28;20123;-62
2023/05/17 01:58:25;;;;;;;4.35;1.80;;;21.80;39.60;;;;;;5046981;28;20094;-61
2023/05/17 02:00:57;;;;;;;4.90;2.10;;;21.80;39.60;;;;;;5037083;28;20044;-54
2023/05/17 02:03:23;;;;;;;4.72;2.08;;;21.80;39.60;;;;;;5065127;28;20034;-63
2023/05/17 02:05:51;;;;;;;3.33;1.65;;;21.80;39.60;;;;;;5062319;28;20086;-62
2023/05/17 02:08:17;;;;;;;4.30;1.95;;;21.90;39.70;;;;;;5045374;28;20113;-58
2023/05/17 02:10:43;;;;;;;4.15;2.03;;;21.80;39.70;;;;;;5044802;28;20028;-60
2023/05/17 02:13:09;;;;;;;4.78;2.20;;;21.80;39.70;;;;;;5066983;28;20114;-61
2023/05/17 02:15:35;;;;;;;5.35;1.75;;;21.80;39.70;;;;;;5046814;28;20032;-60
2023/05/17 02:18:01;;;;;;;4.57;1.77;;;21.80;39.70;;;;;;5063351;28;20041;-62
2023/05/17 02:20:27;;;;;;;4.85;1.90;;;21.80;39.70;;;;;;5043379;28;20028;-59
2023/05/17 02:22:53;;;;;;;5.95;2.08;;;21.80;39.70;;;;;;5042814;28;20128;-58
2023/05/17 02:25:18;;;;;;;4.10;1.83;;;21.80;39.70;;;;;;5063234;28;20024;-59
2023/05/17 02:27:44;;;;;;;4.95;2.10;;;21.90;39.80;;;;;;5045032;28;20453;-57
2023/05/17 02:30:12;;;;;;;4.85;2.05;;;21.80;39.70;;;;;;5066951;28;20025;-58
2023/05/17 02:32:38;;;;;;;5.05;2.03;;;21.80;39.70;;;;;;5063623;28;20040;-61
2023/05/17 02:35:06;;;;;;;5.63;2.40;;;21.80;39.70;;;;;;5063919;28;20033;-60
2023/05/17 02:37:31;;;;;;;4.47;1.70;;;21.80;39.70;;;;;;5062840;28;20097;-59
2023/05/17 02:39:57;;;;;;;3.92;2.15;;;21.80;39.70;;;;;;5063084;28;20025;-58
2023/05/17 02:42:23;;;;;;;6.40;2.42;;;21.80;39.70;;;;;;5060148;28;20432;-60
2023/05/17 02:44:54;;;;;;;4.72;2.13;;;21.80;39.70;;;;;;5057969;28;20024;-60
2023/05/17 02:47:20;;;;;;;6.82;2.15;;;21.80;39.80;;;;;;5064502;28;20028;-58
2023/05/17 02:49:47;;;;;;;5.43;2.00;;;21.80;39.90;;;;;;5066713;28;20021;-62
2023/05/17 02:52:14;;;;;;;5.22;2.25;;;21.80;40.00;;;;;;5044925;28;20044;-60
2023/05/17 02:54:42;;;;;;;4.40;1.85;;;21.80;40.00;;;;;;5042771;28;20043;-60
2023/05/17 02:57:09;;;;;;;4.32;2.15;;;21.80;40.10;;;;;;5041412;28;20032;-60
2023/05/17 02:59:35;;;;;;;6.72;2.53;;;21.80;40.70;;;;;;5050414;28;20138;-59
2023/05/17 03:02:01;;;;;;;5.75;1.98;;;21.80;40.10;;;;;;5041266;28;20062;-59
2023/05/17 03:04:27;;;;;;;5.97;1.98;;;21.80;40.20;;;;;;5044217;28;20061;-59
2023/05/17 03:06:54;;;;;;;5.47;2.25;;;21.80;40.20;;;;;;5043386;28;20029;-58
2023/05/17 03:09:21;;;;;;;4.70;2.20;;;21.80;40.20;;;;;;5041001;28;20021;-57
2023/05/17 03:11:49;;;;;;;4.97;1.90;;;21.80;40.20;;;;;;5045287;28;20062;-61
2023/05/17 03:14:20;;;;;;;6.95;1.88;;;21.80;40.10;;;;;;5043495;28;20103;-60
2023/05/17 03:16:46;;;;;;;5.28;2.20;;;21.80;40.70;;;;;;5039468;28;20190;-58
2023/05/17 03:19:12;;;;;;;4.00;1.80;;;21.80;40.20;;;;;;5042478;28;20017;-60
2023/05/17 03:21:40;;;;;;;4.45;1.90;;;21.80;40.10;;;;;;5042305;28;20343;-60
2023/05/17 03:24:06;;;;;;;4.28;1.83;;;21.80;40.10;;;;;;5042772;28;20032;-60
2023/05/17 03:26:32;;;;;;;3.85;1.75;;;21.80;40.10;;;;;;5039988;28;20124;-61
2023/05/17 03:28:58;;;;;;;4.18;1.92;;;21.80;40.20;;;;;;5041688;28;20028;-60
2023/05/17 03:31:25;;;;;;;3.10;1.90;;;21.80;40.10;;;;;;5040312;28;20032;-58
2023/05/17 03:33:51;;;;;;;4.32;1.90;;;21.80;40.10;;;;;;5046885;28;20017;-60
2023/05/17 03:36:18;;;;;;;4.30;1.95;;;21.80;40.10;;;;;;5040622;28;20036;-60
2023/05/17 03:38:44;;;;;;;4.20;1.83;;;21.70;40.00;;;;;;5040085;28;20021;-59
2023/05/17 03:41:10;;;;;;;4.32;1.80;;;21.80;40.10;;;;;;5041544;28;20020;-61
2023/05/17 03:43:36;;;;;;;3.22;1.80;;;21.70;40.00;;;;;;5038863;28;20045;-57
2023/05/17 03:46:02;;;;;;;4.65;1.90;;;21.70;40.00;;;;;;5043987;28;20091;-57
2023/05/17 03:48:29;;;;;;;4.13;1.90;;;21.70;40.00;;;;;;5040065;28;20033;-61
2023/05/17 03:50:54;;;;;;;5.03;2.05;;;21.70;40.00;;;;;;5056476;28;20048;-59
2023/05/17 03:53:21;;;;;;;4.55;2.25;;;21.80;40.00;;;;;;5051217;28;20049;-59
2023/05/17 03:55:46;;;;;;;3.67;1.77;;;21.80;40.00;;;;;;5036836;28;20028;-61
2023/05/17 03:58:12;;;;;;;3.50;1.75;;;21.70;40.00;;;;;;5048010;28;20070;-61
2023/05/17 04:00:39;;;;;;;4.93;2.10;;;21.80;40.00;;;;;;5055592;28;20314;-59
2023/05/17 04:03:11;;;;;;;3.83;1.83;;;21.70;39.90;;;;;;5035715;28;20087;-60
2023/05/17 04:05:40;;;;;;;4.55;1.80;;;21.70;39.90;;;;;;5036903;28;20061;-58
2023/05/17 04:08:06;;;;;;;4.00;1.88;;;21.70;39.90;;;;;;5042363;28;20078;-60
2023/05/17 04:10:32;;;;;;;4.60;1.80;;;21.70;39.90;;;;;;5036158;28;20360;-60
2023/05/17 04:12:57;;;;;;;4.57;2.03;;;21.70;39.80;;;;;;5034865;28;20037;-60
2023/05/17 04:15:24;;;;;;;4.43;1.80;;;21.80;39.90;;;;;;5036198;28;20148;-60
2023/05/17 04:17:50;;;;;;;5.30;1.83;;;21.70;39.80;;;;;;5040882;28;20127;-59
2023/05/17 04:20:15;;;;;;;3.85;1.73;;;21.70;39.70;;;;;;5036005;28;20037;-59
2023/05/17 04:22:41;;;;;;;4.93;2.00;;;21.80;39.70;;;;;;5036488;28;20029;-60
2023/05/17 04:25:09;;;;;;;4.32;1.73;;;21.80;39.70;;;;;;5036021;28;20120;-59
2023/05/17 04:27:37;;;;;;;3.63;1.83;;;21.70;39.70;;;;;;5041378;28;20365;-57
2023/05/17 04:30:05;;;;;;;6.35;2.30;;;21.80;39.70;;;;;;5040241;28;20431;-59
2023/05/17 04:32:32;;;;;;;4.65;2.10;;;21.80;39.70;;;;;;5051808;28;20437;-60
2023/05/17 04:34:59;;;;;;;3.88;1.80;;;21.80;39.70;;;;;;5056035;28;20032;-59
2023/05/17 04:37:25;;;;;;;4.47;2.08;;;21.80;39.70;;;;;;5055969;28;20047;-58
2023/05/17 04:39:55;;;;;;;3.38;1.50;;;21.80;39.70;;;;;;5035780;28;20039;-60
2023/05/17 04:42:21;;;;;;;5.88;2.25;;;21.80;39.70;;;;;;5035609;28;20029;-59
2023/05/17 04:44:52;;;;;;;4.47;2.00;;;21.80;39.60;;;;;;5035275;28;20039;-61
2023/05/17 04:47:18;;;;;;;4.07;2.00;;;21.80;39.60;;;;;;5036582;28;20025;-59
2023/05/17 04:49:43;;;;;;;5.15;2.35;;;21.80;39.60;;;;;;5053697;28;20115;-61
2023/05/17 04:52:09;;;;;;;4.68;1.80;;;21.80;39.60;;;;;;5060203;28;20025;-59
2023/05/17 04:54:35;;;;;;;4.88;1.80;;;21.80;39.60;;;;;;5053393;28;20039;-60
2023/05/17 04:57:02;;;;;;;3.65;1.80;;;21.80;39.60;;;;;;5055326;28;20029;-59
2023/05/17 04:59:51;;;;;;;4.28;1.60;;;21.80;39.60;;;;;;5049579;28;20045;-60
2023/05/17 05:02:17;;;;;;;3.40;1.67;;;21.80;39.60;;;;;;5036140;28;20115;-60
2023/05/17 05:04:42;;;;;;;3.50;1.80;;;21.80;39.60;;;;;;5041423;28;20033;-60
2023/05/17 05:07:10;;;;;;;5.65;1.42;;;21.80;39.60;;;;;;5036822;28;20039;-61
2023/05/17 05:09:36;;;;;;;4.28;1.95;;;21.80;39.60;;;;;;5054292;28;20401;-61
2023/05/17 05:12:02;;;;;;;4.60;1.95;;;21.80;39.60;;;;;;5053169;28;20094;-60
2023/05/17 05:14:29;;;;;;;4.57;1.90;;;21.80;39.50;;;;;;5034506;28;20039;-57
2023/05/17 05:16:56;;;;;;;4.05;1.85;;;21.80;39.50;;;;;;5052760;28;20094;-61
2023/05/17 05:19:22;;;;;;;4.30;1.70;;;21.80;39.60;;;;;;5040183;28;20025;-59
2023/05/17 05:21:49;;;;;;;6.43;1.73;;;21.80;39.60;;;;;;5035175;28;20037;-60
2023/05/17 05:24:15;;;;;;;3.13;1.60;;;21.80;39.70;;;;;;5029201;28;20033;-60
2023/05/17 05:26:41;;;;;;;4.53;1.77;;;21.80;39.70;;;;;;5034776;28;20104;-60
2023/05/17 05:29:07;;;;;;;4.57;2.05;;;21.80;39.70;;;;;;5048747;28;20063;-60
2023/05/17 05:31:33;;;;;;;4.32;1.80;;;21.80;39.70;;;;;;5053327;28;20233;-60
2023/05/17 05:34:00;;;;;;;4.25;1.70;;;21.80;39.70;;;;;;5050897;28;20111;-60
2023/05/17 05:36:26;;;;;;;4.88;1.85;;;21.80;39.70;;;;;;5044879;28;20174;-61
2023/05/17 05:38:53;;;;;;;3.85;1.73;;;21.80;39.80;;;;;;5035254;28;20341;-61
2023/05/17 05:41:19;;;;;;;3.05;1.40;;;21.80;39.80;;;;;;5034883;28;20025;-61
2023/05/17 05:43:45;;;;;;;4.28;1.60;;;21.80;39.90;;;;;;5037004;28;20127;-58
2023/05/17 05:46:12;;;;;;;3.35;1.58;;;21.80;39.90;;;;;;5035032;28;20039;-63
2023/05/17 05:48:40;;;;;;;3.95;1.63;;;21.80;39.90;;;;;;5048208;28;20033;-61
2023/05/17 05:51:07;;;;;;;3.58;1.52;;;21.80;39.90;;;;;;5054925;28;20029;-60
2023/05/17 05:53:34;;;;;;;4.55;1.55;;;21.80;40.00;;;;;;5050003;28;20025;-61
2023/05/17 05:56:00;;;;;;;5.28;1.80;;;21.80;40.00;;;;;;5052375;28;20483;-60
2023/05/17 05:58:26;;;;;;;2.83;1.40;;;21.70;40.00;;;;;;5035077;28;20055;-60
2023/05/17 06:00:52;;;;;;;4.75;1.77;;;21.80;40.10;;;;;;5048827;28;20032;-61
2023/05/17 06:03:17;;;;;;;5.70;1.65;;;21.70;40.10;;;;;;5055712;28;20079;-59
2023/05/17 06:05:43;;;;;;;5.10;1.73;;;21.70;40.10;;;;;;5034810;28;20048;-60
2023/05/17 06:08:09;;;;;;;3.60;1.70;;;21.70;40.30;;;;;;5053250;28;20064;-61
2023/05/17 06:10:34;;;;;;;6.18;1.98;;;21.70;40.40;;;;;;5052493;28;20464;-60
2023/05/17 06:13:00;;;;;;;3.25;1.40;;;21.70;40.30;;;;;;5054440;28;20188;-60
2023/05/17 06:15:27;;;;;;;6.13;1.98;;;21.80;40.30;;;;;;5052820;28;20108;-60
2023/05/17 06:17:53;;;;;;;4.10;1.73;;;21.70;40.30;;;;;;5037929;28;20375;-59
2023/05/17 06:20:18;;;;;;;3.22;1.48;;;21.70;40.30;;;;;;5052525;28;20090;-64
2023/05/17 06:22:44;;;;;;;4.13;1.52;;;21.70;40.30;;;;;;5056847;28;20033;-60
2023/05/17 06:25:10;;;;;;;4.30;1.83;;;21.70;40.40;;;;;;5051948;28;20099;-60
2023/05/17 06:27:36;;;;;;;4.30;1.70;;;21.70;40.40;;;;;;5070763;28;20040;-60
2023/05/17 06:30:03;;;;;;;4.43;1.65;;;21.70;40.40;;;;;;5072550;28;20066;-58
2023/05/17 06:32:30;;;;;;;3.83;1.58;;;21.70;40.40;;;;;;5068487;28;20021;-59
2023/05/17 06:34:56;;;;;;;8.75;1.50;;;21.70;40.40;;;;;;5052403;28;20405;-60
2023/05/17 06:37:22;;;;;;;5.03;1.58;;;21.70;40.30;;;;;;5054296;28;20219;-60
2023/05/17 06:39:50;;;;;;;3.40;1.40;;;21.70;40.30;;;;;;5058559;28;20059;-61
2023/05/17 06:42:16;;;;;;;4.63;1.60;;;21.70;40.30;;;;;;5055967;28;20033;-60
2023/05/17 06:44:42;;;;;;;4.38;1.58;;;21.70;40.30;;;;;;5064905;28;20054;-60
2023/05/17 06:47:08;;;;;;;3.38;1.55;;;21.70;40.30;;;;;;5059452;28;20025;-62
2023/05/17 06:49:34;;;;;;;3.08;1.48;;;21.70;40.40;;;;;;5063659;28;20029;-60
2023/05/17 06:52:04;;;;;;;4.47;2.10;;;21.70;40.40;;;;;;5055290;28;20104;-60
2023/05/17 06:54:30;;;;;;;3.42;1.25;;;21.70;40.40;;;;;;5061958;28;20316;-61
2023/05/17 06:57:02;;;;;;;3.22;1.30;;;21.70;40.50;;;;;;5060708;28;20039;-60
2023/05/17 06:59:28;;;;;;;4.25;1.48;;;21.70;40.60;;;;;;5038619;28;20155;-61
2023/05/17 07:01:54;;;;;;;3.05;1.63;;;21.70;40.60;;;;;;5070618;28;20032;-61
2023/05/17 07:04:20;;;;;;;4.72;1.75;;;21.80;40.70;;;;;;5075816;28;20111;-60
2023/05/17 07:06:46;;;;;;;4.85;1.60;;;21.80;40.70;;;;;;5067550;28;20058;-62
2023/05/17 07:09:22;;;;;;;6.63;2.30;;;21.80;40.70;;;;;;5070557;28;20036;-63
2023/05/17 07:11:48;;;;;;;6.07;1.98;;;21.80;40.70;;;;;;5070088;28;20120;-60
2023/05/17 07:14:13;;;;;;;4.53;1.65;;;21.80;40.60;;;;;;5060261;28;20325;-61
2023/05/17 07:16:39;;;;;;;5.28;1.85;;;21.80;40.60;;;;;;5065003;28;20032;-60
2023/05/17 07:19:05;;;;;;;3.97;1.73;;;21.80;40.40;;;;;;5063462;28;20163;-62
2023/05/17 07:21:32;;;;;;;6.20;1.70;;;21.80;40.30;;;;;;5068943;28;20043;-61
2023/05/17 07:23:58;;;;;;;3.72;1.65;;;21.80;40.30;;;;;;5059621;28;20040;-60
2023/05/17 07:26:24;;;;;;;4.30;1.70;;;21.80;40.20;;;;;;5054440;28;20097;-60
2023/05/17 07:28:50;;;;;;;7.20;2.22;;;21.80;40.20;;;;;;5054742;28;20378;-60
2023/05/17 07:31:16;;;;;;;6.10;2.15;;;21.80;40.20;;;;;;5037376;28;20134;-62
2023/05/17 07:33:42;;;;;;;7.40;2.28;;;21.80;40.20;;;;;;5050673;28;20021;-60
2023/05/17 07:36:08;;;;;;;6.35;2.15;;;21.80;40.30;;;;;;5034068;28;20047;-60
2023/05/17 07:38:36;;;;;;;4.65;1.65;;;21.80;40.30;;;;;;5057780;28;20467;-60
2023/05/17 07:41:03;;;;;;;4.75;1.58;;;21.80;40.30;;;;;;5058674;28;20159;-60
2023/05/17 07:43:29;;;;;;;5.15;1.60;;;21.80;40.30;;;;;;5050884;28;20052;-60
2023/05/17 07:45:55;;;;;;;5.03;2.08;;;21.80;40.90;;;;;;5051471;28;20048;-61
2023/05/17 07:48:21;;;;;;;3.85;1.95;;;21.90;40.20;;;;;;5052135;28;20033;-64
2023/05/17 07:50:48;;;;;;;5.25;2.00;;;21.90;40.20;;;;;;5059839;28;20060;-61
2023/05/17 07:53:14;;;;;;;4.75;2.05;;;21.90;40.20;;;;;;5055052;28;20047;-62
2023/05/17 07:55:40;;;;;;;5.20;1.83;;;21.90;40.10;;;;;;5064020;28;20092;-60
2023/05/17 07:58:12;;;;;;;5.00;1.98;;;21.90;40.00;;;;;;5044172;28;20414;-60
2023/05/17 08:00:38;;;;;;;5.35;1.75;;;21.80;39.70;;;;;;5054291;28;20112;-61
2023/05/17 08:03:04;;;;;;;6.95;1.70;;;21.90;39.60;;;;;;5070749;28;20149;-62
2023/05/17 08:05:29;;;;;;;3.65;1.40;;;21.90;39.40;;;;;;5067082;28;20107;-61
2023/05/17 08:07:58;;;;;;;5.90;1.70;;;21.90;39.30;;;;;;5056252;28;20029;-61
2023/05/17 08:10:25;;;;;;;5.32;1.70;;;21.90;39.20;;;;;;5054447;28;20032;-60
2023/05/17 08:12:52;;;;;;;4.13;1.60;;;21.90;39.00;;;;;;5053909;28;20471;-60
2023/05/17 08:15:18;;;;;;;4.22;1.30;;;21.80;38.90;;;;;;5054551;28;20033;-60
2023/05/17 08:17:43;;;;;;;3.90;1.42;;;21.80;38.70;;;;;;5061234;28;20522;-62
2023/05/17 08:20:09;;;;;;;4.45;1.45;;;21.90;38.70;;;;;;5061086;28;20147;-60
2023/05/17 08:22:35;;;;;;;3.40;1.35;;;21.90;38.60;;;;;;5063766;28;20096;-60
2023/05/17 08:25:02;;;;;;;3.80;1.40;;;21.90;38.50;;;;;;5043579;28;20086;-59
2023/05/17 08:27:29;;;;;;;3.45;1.30;;;21.90;38.40;;;;;;5062576;28;20039;-61
2023/05/17 08:29:56;;;;;;;2.65;1.02;;;21.90;38.30;;;;;;5061209;28;20032;-60
2023/05/17 08:32:22;;;;;;;3.65;1.25;;;21.90;38.20;;;;;;5040447;28;20433;-60
2023/05/17 08:34:48;;;;;;;2.78;0.93;;;21.90;38.10;;;;;;5063279;28;20035;-63
2023/05/17 08:37:14;;;;;;;2.88;1.13;;;21.90;37.90;;;;;;5061977;28;20139;-60
2023/05/17 08:39:40;;;;;;;3.33;1.15;;;21.90;37.80;;;;;;5061711;28;20040;-61
2023/05/17 08:42:07;;;;;;;2.70;0.93;;;21.90;37.70;;;;;;5060171;28;20032;-59
2023/05/17 08:44:33;;;;;;;3.55;1.20;;;21.90;37.60;;;;;;5061617;28;20182;-60
2023/05/17 08:47:01;;;;;;;3.25;1.35;;;21.90;37.50;;;;;;5061481;28;20119;-61
2023/05/17 08:49:29;;;;;;;4.32;1.30;;;21.90;37.40;;;;;;5036417;28;20047;-60
2023/05/17 08:51:58;;;;;;;3.13;1.02;;;21.90;37.30;;;;;;5059759;28;20029;-60
2023/05/17 08:54:23;;;;;;;3.08;1.25;;;21.90;37.20;;;;;;5062249;28;20025;-61
2023/05/17 08:56:52;;;;;;;3.95;1.00;;;21.90;37.10;;;;;;5063463;28;20093;-62
2023/05/17 08:59:18;;;;;;;2.50;0.95;;;21.90;37.00;;;;;;5059631;28;20489;-60
2023/05/17 09:01:48;;;;;;;3.85;0.98;;;21.90;36.90;;;;;;5061501;28;20105;-59
2023/05/17 09:04:15;;;;;;;2.25;0.80;;;21.90;36.70;;;;;;5040947;28;20366;-61
2023/05/17 09:06:43;;;;;;;3.58;1.23;;;21.90;36.60;;;;;;5058871;28;20049;-59
2023/05/17 09:09:09;;;;;;;3.35;1.00;;;21.90;36.50;;;;;;5064522;28;20051;-60
2023/05/17 09:11:35;;;;;;;4.03;1.30;;;21.90;36.50;;;;;;5056044;28;20217;-60
2023/05/17 09:14:03;;;;;;;3.45;1.00;;;21.90;36.50;;;;;;5062483;28;20029;-60
2023/05/17 09:16:30;;;;;;;2.70;1.00;;;22.00;36.50;;;;;;5060478;28;20057;-61
2023/05/17 09:18:57;;;;;;;2.90;1.00;;;21.90;36.40;;;;;;5058485;28;20448;-60
2023/05/17 09:21:25;;;;;;;4.15;1.23;;;21.90;36.40;;;;;;5062306;28;20103;-62
2023/05/17 09:23:52;;;;;;;2.83;1.10;;;22.00;36.40;;;;;;5062169;28;20020;-60
2023/05/17 09:26:18;;;;;;;3.58;0.90;;;21.90;36.30;;;;;;5060849;28;20138;-62
2023/05/17 09:28:44;;;;;;;1.73;0.70;;;21.90;36.30;;;;;;5062147;28;20150;-58
2023/05/17 09:31:14;;;;;;;2.92;1.00;;;21.90;36.10;;;;;;5061266;28;20032;-63
2023/05/17 09:33:47;;;;;;;2.35;1.05;;;22.00;36.10;;;;;;5042741;28;20043;-57
2023/05/17 09:36:21;;;;;;;2.70;1.05;;;22.00;36.00;;;;;;5059519;28;20040;-60
2023/05/17 09:38:54;;;;;;;3.63;1.10;;;22.00;36.00;;;;;;5056755;28;20037;-61
2023/05/17 09:41:21;;;;;;;2.28;0.75;;;22.00;36.10;;;;;;5056521;28;20037;-61
2023/05/17 09:43:47;;;;;;;4.10;1.00;;;22.00;36.10;;;;;;5058234;28;20371;-61
2023/05/17 09:46:14;;;;;;;2.35;0.80;;;22.00;36.00;;;;;;5057454;28;20036;-60
2023/05/17 09:48:42;;;;;;;3.30;0.95;;;22.00;35.90;;;;;;5043923;28;20334;-60
2023/05/17 09:51:08;;;;;;;2.40;1.08;;;22.00;35.70;;;;;;5056422;28;20024;-58
2023/05/17 09:53:38;;;;;;;2.78;1.02;;;22.00;35.60;;;;;;5046321;28;20408;-61
2023/05/17 09:56:05;;;;;;;1.98;0.80;;;22.00;35.60;;;;;;5055871;28;20029;-60
2023/05/17 09:58:33;;;;;;;2.05;0.90;;;22.00;35.60;;;;;;5055850;28;20048;-59
2023/05/17 10:01:00;;;;;;;2.58;1.00;;;22.00;35.50;;;;;;5057556;28;20127;-60
2023/05/17 10:03:30;;;;;;;2.50;0.85;;;22.00;35.50;;;;;;5066082;28;20052;-61
2023/05/17 10:05:57;;;;;;;4.07;0.80;;;22.10;35.50;;;;;;5061692;28;20043;-61
2023/05/17 10:08:26;;;;;;;2.15;0.80;;;22.00;35.30;;;;;;5057883;28;20068;-63
2023/05/17 10:10:59;;;;;;;2.40;0.80;;;22.00;35.20;;;;;;5037225;28;20056;-62
2023/05/17 10:13:32;;;;;;;2.13;0.80;;;22.10;35.20;;;;;;5056418;28;20037;-60
2023/05/17 10:16:00;;;;;;;1.85;0.60;;;22.00;35.00;;;;;;5058594;28;20029;-60
2023/05/17 10:18:27;;;;;;;1.88;0.70;;;22.10;35.00;;;;;;5055957;28;20049;-60
2023/05/17 10:20:55;;;;;;;2.35;0.90;;;22.10;35.60;;;;;;5057111;28;20103;-60
2023/05/17 10:23:22;;;;;;;1.58;0.68;;;22.10;34.90;;;;;;5062839;28;20028;-61
2023/05/17 10:25:49;;;;;;;1.58;0.70;;;22.10;34.90;;;;;;5038599;28;20036;-60
2023/05/17 10:28:17;;;;;;;3.53;1.00;;;22.10;34.90;;;;;;5056450;28;20051;-59
2023/05/17 10:30:43;;;;;;;1.40;0.70;;;22.10;34.80;;;;;;5055726;28;20105;-61
2023/05/17 10:33:11;;;;;;;2.53;0.80;;;22.10;34.80;;;;;;5039072;28;20065;-60
2023/05/17 10:35:39;;;;;;;1.73;0.60;;;22.10;34.70;;;;;;5057972;28;20070;-58
2023/05/17 10:38:05;;;;;;;2.78;0.80;;;22.10;34.60;;;;;;5064746;28;20045;-60
2023/05/17 10:40:32;;;;;;;2.58;0.73;;;22.10;34.50;;;;;;5056601;28;20037;-60
2023/05/17 10:43:00;;;;;;;1.63;0.75;;;22.10;34.40;;;;;;5060154;28;20041;-60
2023/05/17 10:45:26;;;;;;;1.85;0.50;;;22.10;34.40;;;;;;5047184;28;20040;-59
2023/05/17 10:47:53;;;;;;;2.67;0.88;;;22.10;34.30;;;;;;5068071;28;20032;-61
2023/05/17 10:50:23;;;;;;;1.48;0.63;;;22.10;34.20;;;;;;5060473;28;20273;-53
2023/05/17 10:52:50;;;;;;;3.10;0.70;;;22.10;34.10;;;;;;5063520;28;20072;-60
2023/05/17 10:55:27;;;;;;;2.88;1.00;;;22.10;34.50;;;;;;5060817;28;20036;-63
2023/05/17 10:58:15;;;;;;;1.63;0.70;;;22.20;35.10;;;;;;5061150;28;20317;-59
2023/05/17 11:00:58;;;;;;;2.22;1.00;;;22.20;35.60;;;;;;5055988;28;20103;-62
2023/05/17 11:03:35;;;;;;;6.43;1.40;;;22.20;35.80;;;;;;5058208;28;20122;-62
2023/05/17 11:06:20;;;;;;;4.10;1.05;;;22.20;36.00;;;;;;5041198;28;20043;-63
2023/05/17 11:09:26;;;;;;;3.17;1.02;;;22.20;36.70;;;;;;5058976;28;20036;-62
2023/05/17 11:12:09;;;;;;;2.80;1.10;;;22.30;36.00;;;;;;5068882;28;20055;-62
2023/05/17 11:14:44;;;;;;;2.35;1.23;;;22.30;35.90;;;;;;5041963;28;20123;-63
2023/05/17 11:17:19;;;;;;;2.40;0.70;;;22.40;35.80;;;;;;5051015;28;20063;-66
2023/05/17 11:20:08;;;;;;;2.17;0.93;;;22.50;35.70;;;;;;5039821;28;20040;-62
2023/05/17 11:22:41;;;;;;;4.00;0.85;;;22.60;35.70;;;;;;5065827;28;20021;-64
2023/05/17 11:25:16;;;;;;;2.67;0.82;;;22.70;35.70;;;;;;5040067;28;20368;-58
2023/05/17 11:27:47;;;;;;;2.65;0.95;;;22.80;35.60;;;;;;5065498;28;20932;-63
2023/05/17 11:30:27;;;;;;;2.20;0.80;;;22.90;35.50;;;;;;5038004;28;20449;-63
2023/05/17 11:32:54;;;;;;;1.40;0.80;;;23.00;35.20;;;;;;5057862;28;20107;-60
2023/05/17 11:35:25;;;;;;;1.85;0.80;;;23.00;35.00;;;;;;5062436;28;20415;-60
2023/05/17 11:37:52;;;;;;;1.83;0.57;;;23.10;34.70;;;;;;5066886;28;20093;-61
2023/05/17 11:40:26;;;;;;;1.65;0.70;;;23.20;34.50;;;;;;5038059;28;20429;-57
2023/05/17 11:43:12;;;;;;;2.38;0.77;;;23.30;34.30;;;;;;5055657;28;20346;-59
2023/05/17 11:45:49;;;;;;;2.25;0.88;;;23.40;34.10;;;;;;5056659;28;20033;-63
2023/05/17 11:48:17;;;;;;;1.70;0.70;;;23.40;34.00;;;;;;5058445;28;20040;-60
2023/05/17 11:50:47;;;;;;;1.38;0.60;;;23.50;33.80;;;;;;5044922;28;20032;-57
2023/05/17 11:53:16;;;;;;;2.00;0.80;;;23.50;33.60;;;;;;5063665;28;20447;-62
2023/05/17 11:55:50;;;;;;;3.20;0.65;;;23.60;33.50;;;;;;5075055;28;20101;-63
2023/05/17 11:58:31;;;;;;;2.33;0.70;;;23.70;33.40;;;;;;5060466;28;20055;-61
2023/05/17 12:01:02;;;;;;;3.05;0.80;;;23.70;33.20;;;;;;5063050;28;20032;-60
2023/05/17 12:03:29;;;;;;;2.92;0.70;;;23.80;33.10;;;;;;5057380;28;20424;-61
2023/05/17 12:06:11;;;;;;;4.20;1.00;;;23.80;33.00;;;;;;5061241;28;20081;-59
2023/05/17 12:08:39;;;;;;;1.67;0.63;;;23.80;32.80;;;;;;5062159;28;20036;-61
2023/05/17 12:11:16;;;;;;;2.42;0.80;;;23.90;32.70;;;;;;5059856;28;20029;-63
2023/05/17 12:13:47;;;;;;;3.45;1.13;;;23.90;32.60;;;;;;5068089;28;20029;-61
2023/05/17 12:16:15;;;;;;;3.13;1.05;;;24.00;32.50;;;;;;5057152;28;20033;-59
2023/05/17 12:18:48;;;;;;;3.47;0.88;;;24.00;32.40;;;;;;5058585;28;20424;-61
2023/05/17 12:21:16;;;;;;;2.90;1.03;;;24.10;32.30;;;;;;5062387;28;20093;-57
2023/05/17 12:23:44;;;;;;;1.70;0.70;;;24.10;32.30;;;;;;5061227;28;20032;-56
2023/05/17 12:26:15;;;;;;;2.28;0.80;;;24.10;32.20;;;;;;5062679;28;20025;-52
2023/05/17 12:28:55;;;;;;;2.65;0.60;;;24.20;32.20;;;;;;5062530;28;20104;-58
2023/05/17 12:31:30;;;;;;;4.05;0.90;;;24.20;32.10;;;;;;5059535;28;20123;-56
2023/05/17 12:33:58;;;;;;;3.75;1.20;;;24.20;31.90;;;;;;5058176;28;20097;-57
2023/05/17 12:36:26;;;;;;;2.22;0.60;;;24.10;31.80;;;;;;5058410;28;20364;-55
2023/05/17 12:38:52;;;;;;;3.58;1.13;;;24.10;31.70;;;;;;5058317;28;20364;-58
2023/05/17 12:41:21;;;;;;;3.80;1.10;;;24.10;31.80;;;;;;5059586;28;20035;-54
2023/05/17 12:43:48;;;;;;;2.58;0.90;;;24.00;31.60;;;;;;5057980;28;20040;-56
2023/05/17 12:46:17;;;;;;;3.15;1.17;;;24.00;31.60;;;;;;5060826;28;20025;-59
2023/05/17 12:48:43;;;;;;;2.88;0.90;;;24.00;31.60;;;;;;5061902;28;20039;-61
2023/05/17 12:51:13;;;;;;;2.33;0.90;;;23.90;31.60;;;;;;5061872;28;20028;-54
2023/05/17 12:53:47;;;;;;;2.15;0.85;;;23.80;31.50;;;;;;5069657;28;20348;-53